sensor_id;sensor_type;location;lat;lon;timestamp;pressure;altitude;pressure_sealevel;temperature;humidity
55010;BME280;40903;51.638;7.528;2024-03-06T00:02:11;101189.88;;;6.66;100.00
55010;BME280;40903;51.638;7.528;2024-03-06T00:04:36;101198.00;;;6.66;100.00
55010;BME280;40903;51.638;7.528;2024-03-06T00:07:03;101189.31;;;6.64;100.00
55010;BME280;40903;51.638;7.528;2024-03-06T00:09:28;101202.88;;;6.64;100.00
55010;BME280;40903;51.638;7.528;2024-03-06T00:11:55;101212.06;;;6.63;100.00
55010;BME280;40903;51.638;7.528;2024-03-06T00:14:21;101213.72;;;6.64;100.00
55010;BME280;40903;51.638;7.528;2024-03-06T00:16:50;101218.31;;;6.63;100.00
55010;BME280;40903;51.638;7.528;2024-03-06T00:19:19;101215.63;;;6.63;100.00
55010;BME280;40903;51.638;7.528;2024-03-06T00:21:45;101216.41;;;6.64;100.00
55010;BME280;40903;51.638;7.528;2024-03-06T00:24:12;101215.34;;;6.65;100.00
55010;BME280;40903;51.638;7.528;2024-03-06T00:26:40;101221.03;;;6.63;100.00
55010;BME280;40903;51.638;7.528;2024-03-06T00:29:06;101227.25;;;6.64;100.00
55010;BME280;40903;51.638;7.528;2024-03-06T00:31:31;101230.81;;;6.64;100.00
55010;BME280;40903;51.638;7.528;2024-03-06T00:33:57;101225.63;;;6.63;100.00
55010;BME280;40903;51.638;7.528;2024-03-06T00:36:23;101234.59;;;6.63;100.00
55010;BME280;40903;51.638;7.528;2024-03-06T00:38:48;101240.00;;;6.63;100.00
55010;BME280;40903;51.638;7.528;2024-03-06T00:41:14;101232.94;;;6.62;100.00
55010;BME280;40903;51.638;7.528;2024-03-06T00:43:39;101238.38;;;6.62;100.00
55010;BME280;40903;51.638;7.528;2024-03-06T00:46:05;101240.25;;;6.62;100.00
55010;BME280;40903;51.638;7.528;2024-03-06T00:48:30;101236.72;;;6.61;100.00
55010;BME280;40903;51.638;7.528;2024-03-06T00:50:56;101238.84;;;6.59;100.00
55010;BME280;40903;51.638;7.528;2024-03-06T00:53:21;101235.34;;;6.59;100.00
55010;BME280;40903;51.638;7.528;2024-03-06T00:55:47;101238.84;;;6.59;100.00
55010;BME280;40903;51.638;7.528;2024-03-06T00:58:12;101240.19;;;6.57;100.00
55010;BME280;40903;51.638;7.528;2024-03-06T01:00:38;101243.13;;;6.55;100.00
55010;BME280;40903;51.638;7.528;2024-03-06T01:03:04;101237.16;;;6.53;100.00
55010;BME280;40903;51.638;7.528;2024-03-06T01:05:30;101239.31;;;6.51;100.00
55010;BME280;40903;51.638;7.528;2024-03-06T01:07:55;101238.72;;;6.49;100.00
55010;BME280;40903;51.638;7.528;2024-03-06T01:10:22;101247.09;;;6.48;100.00
55010;BME280;40903;51.638;7.528;2024-03-06T01:12:48;101254.66;;;6.46;100.00
55010;BME280;40903;51.638;7.528;2024-03-06T01:15:13;101259.25;;;6.45;100.00
55010;BME280;40903;51.638;7.528;2024-03-06T01:17:39;101262.22;;;6.44;100.00
55010;BME280;40903;51.638;7.528;2024-03-06T01:20:05;101262.47;;;6.42;100.00
55010;BME280;40903;51.638;7.528;2024-03-06T01:22:34;101251.06;;;6.40;100.00
55010;BME280;40903;51.638;7.528;2024-03-06T01:25:00;101256.47;;;6.40;100.00
55010;BME280;40903;51.638;7.528;2024-03-06T01:27:26;101267.81;;;6.37;100.00
55010;BME280;40903;51.638;7.528;2024-03-06T01:29:51;101258.84;;;6.37;100.00
55010;BME280;40903;51.638;7.528;2024-03-06T01:32:17;101257.47;;;6.34;100.00
55010;BME280;40903;51.638;7.528;2024-03-06T01:34:42;101267.47;;;6.34;100.00
55010;BME280;40903;51.638;7.528;2024-03-06T01:37:08;101265.28;;;6.31;100.00
55010;BME280;40903;51.638;7.528;2024-03-06T01:39:34;101267.41;;;6.29;100.00
55010;BME280;40903;51.638;7.528;2024-03-06T01:42:03;101263.31;;;6.26;100.00
55010;BME280;40903;51.638;7.528;2024-03-06T01:44:29;101271.94;;;6.23;100.00
55010;BME280;40903;51.638;7.528;2024-03-06T01:46:54;101280.28;;;6.22;100.00
55010;BME280;40903;51.638;7.528;2024-03-06T01:49:21;101271.88;;;6.18;100.00
55010;BME280;40903;51.638;7.528;2024-03-06T01:51:53;101283.78;;;6.17;100.00
55010;BME280;40903;51.638;7.528;2024-03-06T01:54:19;101273.69;;;6.13;100.00
55010;BME280;40903;51.638;7.528;2024-03-06T01:56:46;101274.75;;;6.12;100.00
55010;BME280;40903;51.638;7.528;2024-03-06T01:59:17;101279.59;;;6.10;100.00
55010;BME280;40903;51.638;7.528;2024-03-06T02:01:44;101282.53;;;6.08;100.00
55010;BME280;40903;51.638;7.528;2024-03-06T02:04:11;101282.19;;;6.05;100.00
55010;BME280;40903;51.638;7.528;2024-03-06T02:06:38;101274.34;;;6.03;100.00
55010;BME280;40903;51.638;7.528;2024-03-06T02:09:04;101279.19;;;6.01;100.00
55010;BME280;40903;51.638;7.528;2024-03-06T02:11:30;101281.28;;;5.99;100.00
55010;BME280;40903;51.638;7.528;2024-03-06T02:13:56;101281.56;;;5.98;100.00
55010;BME280;40903;51.638;7.528;2024-03-06T02:16:21;101280.72;;;5.97;100.00
55010;BME280;40903;51.638;7.528;2024-03-06T02:18:54;101288.03;;;5.97;100.00
55010;BME280;40903;51.638;7.528;2024-03-06T02:21:20;101273.69;;;5.96;100.00
55010;BME280;40903;51.638;7.528;2024-03-06T02:23:47;101284.50;;;5.96;100.00
55010;BME280;40903;51.638;7.528;2024-03-06T02:26:12;101287.72;;;5.93;100.00
55010;BME280;40903;51.638;7.528;2024-03-06T02:28:38;101296.06;;;5.92;100.00
55010;BME280;40903;51.638;7.528;2024-03-06T02:31:04;101296.31;;;5.90;100.00
55010;BME280;40903;51.638;7.528;2024-03-06T02:33:32;101298.19;;;5.90;100.00
55010;BME280;40903;51.638;7.528;2024-03-06T02:35:59;101290.91;;;5.90;100.00
55010;BME280;40903;51.638;7.528;2024-03-06T02:38:25;101300.91;;;5.90;100.00
55010;BME280;40903;51.638;7.528;2024-03-06T02:40:50;101294.41;;;5.91;100.00
55010;BME280;40903;51.638;7.528;2024-03-06T02:43:16;101299.03;;;5.90;100.00
55010;BME280;40903;51.638;7.528;2024-03-06T02:45:42;101297.38;;;5.89;100.00
55010;BME280;40903;51.638;7.528;2024-03-06T02:48:11;101293.84;;;5.89;100.00
55010;BME280;40903;51.638;7.528;2024-03-06T02:50:36;101290.56;;;5.87;100.00
55010;BME280;40903;51.638;7.528;2024-03-06T02:53:02;101289.78;;;5.86;100.00
55010;BME280;40903;51.638;7.528;2024-03-06T02:55:28;101291.06;;;5.84;100.00
55010;BME280;40903;51.638;7.528;2024-03-06T02:57:53;101292.13;;;5.83;100.00
55010;BME280;40903;51.638;7.528;2024-03-06T03:00:19;101292.94;;;5.83;100.00
55010;BME280;40903;51.638;7.528;2024-03-06T03:02:44;101294.00;;;5.82;100.00
55010;BME280;40903;51.638;7.528;2024-03-06T03:05:10;101293.22;;;5.82;100.00
55010;BME280;40903;51.638;7.528;2024-03-06T03:07:35;101291.56;;;5.81;100.00
55010;BME280;40903;51.638;7.528;2024-03-06T03:10:01;101297.22;;;5.79;100.00
55010;BME280;40903;51.638;7.528;2024-03-06T03:12:26;101302.38;;;5.81;100.00
55010;BME280;40903;51.638;7.528;2024-03-06T03:14:52;101296.41;;;5.79;100.00
55010;BME280;40903;51.638;7.528;2024-03-06T03:17:18;101293.91;;;5.77;100.00
55010;BME280;40903;51.638;7.528;2024-03-06T03:19:44;101294.72;;;5.78;100.00
55010;BME280;40903;51.638;7.528;2024-03-06T03:22:10;101294.97;;;5.76;100.00
55010;BME280;40903;51.638;7.528;2024-03-06T03:24:36;101300.38;;;5.76;100.00
55010;BME280;40903;51.638;7.528;2024-03-06T03:27:02;101299.53;;;5.76;100.00
55010;BME280;40903;51.638;7.528;2024-03-06T03:29:28;101306.28;;;5.73;100.00
55010;BME280;40903;51.638;7.528;2024-03-06T03:31:54;101304.88;;;5.71;100.00
55010;BME280;40903;51.638;7.528;2024-03-06T03:34:20;101308.66;;;5.70;100.00
55010;BME280;40903;51.638;7.528;2024-03-06T03:36:46;101307.00;;;5.69;100.00
55010;BME280;40903;51.638;7.528;2024-03-06T03:39:14;101307.50;;;5.66;100.00
55010;BME280;40903;51.638;7.528;2024-03-06T03:41:44;101311.50;;;5.64;100.00
55010;BME280;40903;51.638;7.528;2024-03-06T03:44:12;101311.16;;;5.60;100.00
55010;BME280;40903;51.638;7.528;2024-03-06T03:46:38;101313.31;;;5.58;100.00
55010;BME280;40903;51.638;7.528;2024-03-06T03:49:04;101312.97;;;5.55;100.00
55010;BME280;40903;51.638;7.528;2024-03-06T03:51:29;101312.66;;;5.51;100.00
55010;BME280;40903;51.638;7.528;2024-03-06T03:53:55;101317.13;;;5.46;100.00
55010;BME280;40903;51.638;7.528;2024-03-06T03:56:20;101314.09;;;5.42;100.00
55010;BME280;40903;51.638;7.528;2024-03-06T03:58:47;101318.56;;;5.37;100.00
55010;BME280;40903;51.638;7.528;2024-03-06T04:01:12;101326.59;;;5.32;100.00
55010;BME280;40903;51.638;7.528;2024-03-06T04:03:38;101322.75;;;5.28;100.00
55010;BME280;40903;51.638;7.528;2024-03-06T04:06:04;101332.38;;;5.24;100.00
55010;BME280;40903;51.638;7.528;2024-03-06T04:08:29;101328.75;;;5.18;100.00
55010;BME280;40903;51.638;7.528;2024-03-06T04:10:55;101335.69;;;5.14;100.00
55010;BME280;40903;51.638;7.528;2024-03-06T04:13:20;101339.94;;;5.10;100.00
55010;BME280;40903;51.638;7.528;2024-03-06T04:15:46;101351.25;;;5.07;100.00
55010;BME280;40903;51.638;7.528;2024-03-06T04:18:12;101340.09;;;5.04;100.00
55010;BME280;40903;51.638;7.528;2024-03-06T04:20:38;101351.72;;;5.04;100.00
55010;BME280;40903;51.638;7.528;2024-03-06T04:23:03;101354.44;;;5.04;100.00
55010;BME280;40903;51.638;7.528;2024-03-06T04:25:29;101358.19;;;5.03;100.00
55010;BME280;40903;51.638;7.528;2024-03-06T04:27:54;101355.50;;;5.03;100.00
55010;BME280;40903;51.638;7.528;2024-03-06T04:30:20;101358.78;;;5.05;100.00
55010;BME280;40903;51.638;7.528;2024-03-06T04:32:46;101360.41;;;5.06;100.00
55010;BME280;40903;51.638;7.528;2024-03-06T04:35:12;101364.97;;;5.06;100.00
55010;BME280;40903;51.638;7.528;2024-03-06T04:37:37;101363.34;;;5.05;100.00
55010;BME280;40903;51.638;7.528;2024-03-06T04:40:03;101368.25;;;5.08;100.00
55010;BME280;40903;51.638;7.528;2024-03-06T04:42:36;101371.22;;;5.06;100.00
55010;BME280;40903;51.638;7.528;2024-03-06T04:45:03;101372.50;;;5.04;100.00
55010;BME280;40903;51.638;7.528;2024-03-06T04:47:28;101373.34;;;5.04;100.00
55010;BME280;40903;51.638;7.528;2024-03-06T04:49:54;101381.69;;;5.03;100.00
55010;BME280;40903;51.638;7.528;2024-03-06T04:52:19;101380.84;;;5.02;100.00
55010;BME280;40903;51.638;7.528;2024-03-06T04:54:45;101392.72;;;5.01;100.00
55010;BME280;40903;51.638;7.528;2024-03-06T04:57:10;101387.94;;;5.03;100.00
55010;BME280;40903;51.638;7.528;2024-03-06T04:59:36;101391.66;;;5.02;100.00
55010;BME280;40903;51.638;7.528;2024-03-06T05:02:01;101397.06;;;5.02;100.00
55010;BME280;40903;51.638;7.528;2024-03-06T05:04:28;101394.34;;;5.02;100.00
55010;BME280;40903;51.638;7.528;2024-03-06T05:06:54;101398.38;;;5.00;100.00
55010;BME280;40903;51.638;7.528;2024-03-06T05:09:19;101402.94;;;4.99;100.00
55010;BME280;40903;51.638;7.528;2024-03-06T05:11:46;101398.59;;;4.98;100.00
55010;BME280;40903;51.638;7.528;2024-03-06T05:14:15;101410.72;;;4.96;100.00
55010;BME280;40903;51.638;7.528;2024-03-06T05:16:41;101414.47;;;4.95;100.00
55010;BME280;40903;51.638;7.528;2024-03-06T05:19:06;101420.13;;;4.93;100.00
55010;BME280;40903;51.638;7.528;2024-03-06T05:21:32;101414.13;;;4.91;100.00
55010;BME280;40903;51.638;7.528;2024-03-06T05:23:58;101418.94;;;4.89;100.00
55010;BME280;40903;51.638;7.528;2024-03-06T05:26:24;101422.72;;;4.88;100.00
55010;BME280;40903;51.638;7.528;2024-03-06T05:28:49;101429.75;;;4.89;100.00
55010;BME280;40903;51.638;7.528;2024-03-06T05:31:19;101424.81;;;4.86;100.00
55010;BME280;40903;51.638;7.528;2024-03-06T05:33:49;101429.41;;;4.86;100.00
55010;BME280;40903;51.638;7.528;2024-03-06T05:36:15;101426.13;;;4.84;100.00
55010;BME280;40903;51.638;7.528;2024-03-06T05:38:43;101429.03;;;4.82;100.00
55010;BME280;40903;51.638;7.528;2024-03-06T05:41:08;101432.22;;;4.79;100.00
55010;BME280;40903;51.638;7.528;2024-03-06T05:43:34;101435.63;;;4.75;100.00
55010;BME280;40903;51.638;7.528;2024-03-06T05:45:59;101442.31;;;4.72;100.00
55010;BME280;40903;51.638;7.528;2024-03-06T05:48:26;101442.19;;;4.67;100.00
55010;BME280;40903;51.638;7.528;2024-03-06T05:50:52;101441.25;;;4.62;100.00
55010;BME280;40903;51.638;7.528;2024-03-06T05:53:18;101447.34;;;4.57;100.00
55010;BME280;40903;51.638;7.528;2024-03-06T05:55:43;101447.81;;;4.54;100.00
55010;BME280;40903;51.638;7.528;2024-03-06T05:58:09;101453.69;;;4.51;100.00
55010;BME280;40903;51.638;7.528;2024-03-06T06:00:35;101455.81;;;4.49;100.00
55010;BME280;40903;51.638;7.528;2024-03-06T06:03:00;101458.13;;;4.46;100.00
55010;BME280;40903;51.638;7.528;2024-03-06T06:05:26;101450.50;;;4.43;100.00
55010;BME280;40903;51.638;7.528;2024-03-06T06:07:51;101445.56;;;4.40;100.00
55010;BME280;40903;51.638;7.528;2024-03-06T06:10:17;101448.50;;;4.38;100.00
55010;BME280;40903;51.638;7.528;2024-03-06T06:12:43;101460.81;;;4.34;100.00
55010;BME280;40903;51.638;7.528;2024-03-06T06:15:08;101466.69;;;4.31;100.00
55010;BME280;40903;51.638;7.528;2024-03-06T06:17:34;101473.59;;;4.27;100.00
55010;BME280;40903;51.638;7.528;2024-03-06T06:20:00;101474.88;;;4.25;100.00
55010;BME280;40903;51.638;7.528;2024-03-06T06:22:28;101477.44;;;4.20;100.00
55010;BME280;40903;51.638;7.528;2024-03-06T06:24:54;101489.53;;;4.17;100.00
55010;BME280;40903;51.638;7.528;2024-03-06T06:27:20;101485.66;;;4.13;100.00
55010;BME280;40903;51.638;7.528;2024-03-06T06:29:46;101490.44;;;4.11;100.00
55010;BME280;40903;51.638;7.528;2024-03-06T06:32:11;101489.25;;;4.07;100.00
55010;BME280;40903;51.638;7.528;2024-03-06T06:34:37;101494.91;;;4.06;100.00
55010;BME280;40903;51.638;7.528;2024-03-06T06:37:03;101494.53;;;4.02;100.00
55010;BME280;40903;51.638;7.528;2024-03-06T06:39:28;101496.63;;;4.00;100.00
55010;BME280;40903;51.638;7.528;2024-03-06T06:41:53;101501.19;;;4.00;100.00
55010;BME280;40903;51.638;7.528;2024-03-06T06:44:19;101505.78;;;3.99;100.00
55010;BME280;40903;51.638;7.528;2024-03-06T06:46:44;101509.28;;;4.00;100.00
55010;BME280;40903;51.638;7.528;2024-03-06T06:49:10;101507.63;;;3.99;100.00
55010;BME280;40903;51.638;7.528;2024-03-06T06:51:35;101505.78;;;3.99;100.00
55010;BME280;40903;51.638;7.528;2024-03-06T06:54:01;101510.13;;;4.00;100.00
55010;BME280;40903;51.638;7.528;2024-03-06T06:56:27;101516.31;;;4.01;100.00
55010;BME280;40903;51.638;7.528;2024-03-06T06:58:52;101517.16;;;4.01;100.00
55010;BME280;40903;51.638;7.528;2024-03-06T07:01:18;101525.84;;;4.03;100.00
55010;BME280;40903;51.638;7.528;2024-03-06T07:03:45;101526.22;;;4.07;100.00
55010;BME280;40903;51.638;7.528;2024-03-06T07:06:10;101529.72;;;4.07;100.00
55010;BME280;40903;51.638;7.528;2024-03-06T07:08:37;101525.75;;;4.10;100.00
55010;BME280;40903;51.638;7.528;2024-03-06T07:11:02;101525.50;;;4.11;100.00
55010;BME280;40903;51.638;7.528;2024-03-06T07:13:28;101535.88;;;4.14;100.00
55010;BME280;40903;51.638;7.528;2024-03-06T07:15:53;101534.56;;;4.17;100.00
55010;BME280;40903;51.638;7.528;2024-03-06T07:18:19;101540.81;;;4.17;100.00
55010;BME280;40903;51.638;7.528;2024-03-06T07:20:44;101550.31;;;4.20;100.00
55010;BME280;40903;51.638;7.528;2024-03-06T07:23:11;101543.06;;;4.20;100.00
55010;BME280;40903;51.638;7.528;2024-03-06T07:25:36;101549.63;;;4.24;100.00
55010;BME280;40903;51.638;7.528;2024-03-06T07:28:02;101552.91;;;4.26;100.00
55010;BME280;40903;51.638;7.528;2024-03-06T07:30:27;101556.47;;;4.27;100.00
55010;BME280;40903;51.638;7.528;2024-03-06T07:32:54;101563.72;;;4.26;100.00
55010;BME280;40903;51.638;7.528;2024-03-06T07:35:20;101558.94;;;4.28;100.00
55010;BME280;40903;51.638;7.528;2024-03-06T07:37:45;101556.84;;;4.30;100.00
55010;BME280;40903;51.638;7.528;2024-03-06T07:40:13;101559.88;;;4.34;100.00
55010;BME280;40903;51.638;7.528;2024-03-06T07:42:38;101562.72;;;4.39;100.00
55010;BME280;40903;51.638;7.528;2024-03-06T07:45:05;101561.22;;;4.43;100.00
55010;BME280;40903;51.638;7.528;2024-03-06T07:47:34;101563.22;;;4.47;100.00
55010;BME280;40903;51.638;7.528;2024-03-06T07:49:59;101569.81;;;4.51;100.00
55010;BME280;40903;51.638;7.528;2024-03-06T07:52:24;101570.31;;;4.60;100.00
55010;BME280;40903;51.638;7.528;2024-03-06T07:54:50;101572.69;;;4.68;100.00
55010;BME280;40903;51.638;7.528;2024-03-06T07:57:15;101569.16;;;4.79;100.00
55010;BME280;40903;51.638;7.528;2024-03-06T07:59:41;101577.31;;;4.90;100.00
55010;BME280;40903;51.638;7.528;2024-03-06T08:02:06;101578.75;;;5.04;100.00
55010;BME280;40903;51.638;7.528;2024-03-06T08:04:32;101591.59;;;5.20;100.00
55010;BME280;40903;51.638;7.528;2024-03-06T08:06:58;101591.84;;;5.42;100.00
55010;BME280;40903;51.638;7.528;2024-03-06T08:09:23;101587.09;;;5.60;100.00
55010;BME280;40903;51.638;7.528;2024-03-06T08:11:51;101583.84;;;5.81;100.00
55010;BME280;40903;51.638;7.528;2024-03-06T08:14:19;101593.03;;;6.08;100.00
55010;BME280;40903;51.638;7.528;2024-03-06T08:16:45;101591.56;;;6.28;100.00
55010;BME280;40903;51.638;7.528;2024-03-06T08:19:10;101589.00;;;6.50;100.00
55010;BME280;40903;51.638;7.528;2024-03-06T08:21:35;101592.13;;;6.70;100.00
55010;BME280;40903;51.638;7.528;2024-03-06T08:24:01;101602.63;;;6.83;100.00
55010;BME280;40903;51.638;7.528;2024-03-06T08:26:26;101604.97;;;6.91;100.00
55010;BME280;40903;51.638;7.528;2024-03-06T08:28:52;101612.44;;;7.00;100.00
55010;BME280;40903;51.638;7.528;2024-03-06T08:31:18;101610.72;;;7.11;100.00
55010;BME280;40903;51.638;7.528;2024-03-06T08:33:45;101619.03;;;7.21;100.00
55010;BME280;40903;51.638;7.528;2024-03-06T08:36:10;101615.09;;;7.28;100.00
55010;BME280;40903;51.638;7.528;2024-03-06T08:38:36;101624.78;;;7.41;100.00
55010;BME280;40903;51.638;7.528;2024-03-06T08:41:01;101632.09;;;7.57;100.00
55010;BME280;40903;51.638;7.528;2024-03-06T08:43:27;101629.03;;;7.69;100.00
55010;BME280;40903;51.638;7.528;2024-03-06T08:45:52;101630.88;;;7.85;100.00
55010;BME280;40903;51.638;7.528;2024-03-06T08:48:18;101632.75;;;8.01;100.00
55010;BME280;40903;51.638;7.528;2024-03-06T08:50:43;101633.53;;;8.18;100.00
55010;BME280;40903;51.638;7.528;2024-03-06T08:53:09;101639.75;;;8.35;100.00
55010;BME280;40903;51.638;7.528;2024-03-06T08:55:34;101642.66;;;8.50;100.00
55010;BME280;40903;51.638;7.528;2024-03-06T08:58:00;101646.00;;;8.57;100.00
55010;BME280;40903;51.638;7.528;2024-03-06T09:00:26;101645.34;;;8.72;100.00
55010;BME280;40903;51.638;7.528;2024-03-06T09:02:52;101657.34;;;8.76;100.00
55010;BME280;40903;51.638;7.528;2024-03-06T09:05:18;101654.44;;;8.82;100.00
55010;BME280;40903;51.638;7.528;2024-03-06T09:07:44;101652.75;;;9.03;100.00
55010;BME280;40903;51.638;7.528;2024-03-06T09:10:12;101657.81;;;9.21;100.00
55010;BME280;40903;51.638;7.528;2024-03-06T09:12:39;101654.16;;;9.37;100.00
55010;BME280;40903;51.638;7.528;2024-03-06T09:15:05;101657.19;;;9.40;100.00
55010;BME280;40903;51.638;7.528;2024-03-06T09:17:32;101651.53;;;9.47;100.00
55010;BME280;40903;51.638;7.528;2024-03-06T09:19:58;101643.09;;;9.53;100.00
55010;BME280;40903;51.638;7.528;2024-03-06T09:22:23;101657.09;;;9.67;100.00
55010;BME280;40903;51.638;7.528;2024-03-06T09:24:49;101655.50;;;9.70;100.00
55010;BME280;40903;51.638;7.528;2024-03-06T09:27:15;101651.44;;;9.73;100.00
55010;BME280;40903;51.638;7.528;2024-03-06T09:29:42;101656.44;;;9.86;100.00
55010;BME280;40903;51.638;7.528;2024-03-06T09:32:08;101666.56;;;9.95;100.00
55010;BME280;40903;51.638;7.528;2024-03-06T09:34:33;101665.59;;;10.06;100.00
55010;BME280;40903;51.638;7.528;2024-03-06T09:36:59;101665.06;;;10.14;100.00
55010;BME280;40903;51.638;7.528;2024-03-06T09:39:24;101667.09;;;10.34;100.00
55010;BME280;40903;51.638;7.528;2024-03-06T09:41:50;101666.88;;;10.50;100.00
55010;BME280;40903;51.638;7.528;2024-03-06T09:44:17;101669.09;;;10.58;100.00
55010;BME280;40903;51.638;7.528;2024-03-06T09:46:46;101674.31;;;10.70;100.00
55010;BME280;40903;51.638;7.528;2024-03-06T09:49:13;101673.28;;;10.86;100.00
55010;BME280;40903;51.638;7.528;2024-03-06T09:51:44;101684.50;;;11.09;100.00
55010;BME280;40903;51.638;7.528;2024-03-06T09:54:13;101684.53;;;11.14;100.00
55010;BME280;40903;51.638;7.528;2024-03-06T09:56:43;101681.56;;;11.26;100.00
55010;BME280;40903;51.638;7.528;2024-03-06T09:59:09;101684.84;;;11.38;100.00
55010;BME280;40903;51.638;7.528;2024-03-06T10:02:00;101681.00;;;11.44;100.00
55010;BME280;40903;51.638;7.528;2024-03-06T10:04:27;101687.59;;;11.58;100.00
55010;BME280;40903;51.638;7.528;2024-03-06T10:06:54;101693.34;;;11.71;100.00
55010;BME280;40903;51.638;7.528;2024-03-06T10:09:20;101701.81;;;11.79;100.00
55010;BME280;40903;51.638;7.528;2024-03-06T10:11:46;101690.91;;;11.79;100.00
55010;BME280;40903;51.638;7.528;2024-03-06T10:14:12;101695.53;;;11.89;100.00
55010;BME280;40903;51.638;7.528;2024-03-06T10:16:58;101691.66;;;12.00;100.00
55010;BME280;40903;51.638;7.528;2024-03-06T10:19:27;101705.03;;;12.26;100.00
55010;BME280;40903;51.638;7.528;2024-03-06T10:21:54;101692.34;;;12.50;100.00
55010;BME280;40903;51.638;7.528;2024-03-06T10:24:21;101696.94;;;12.70;100.00
55010;BME280;40903;51.638;7.528;2024-03-06T10:26:48;101699.56;;;12.90;100.00
55010;BME280;40903;51.638;7.528;2024-03-06T10:29:18;101703.66;;;12.97;100.00
55010;BME280;40903;51.638;7.528;2024-03-06T10:32:02;101703.03;;;13.10;100.00
55010;BME280;40903;51.638;7.528;2024-03-06T10:34:28;101701.63;;;13.18;100.00
55010;BME280;40903;51.638;7.528;2024-03-06T10:36:58;101705.41;;;13.27;100.00
55010;BME280;40903;51.638;7.528;2024-03-06T10:39:24;101710.63;;;13.23;100.00
55010;BME280;40903;51.638;7.528;2024-03-06T10:41:54;101716.94;;;13.24;100.00
55010;BME280;40903;51.638;7.528;2024-03-06T10:44:29;101720.22;;;13.21;100.00
55010;BME280;40903;51.638;7.528;2024-03-06T10:46:58;101711.03;;;13.02;100.00
55010;BME280;40903;51.638;7.528;2024-03-06T10:49:26;101717.09;;;12.89;100.00
55010;BME280;40903;51.638;7.528;2024-03-06T10:51:55;101713.09;;;12.71;100.00
55010;BME280;40903;51.638;7.528;2024-03-06T10:54:23;101718.09;;;12.49;100.00
55010;BME280;40903;51.638;7.528;2024-03-06T10:56:51;101733.44;;;12.35;100.00
55010;BME280;40903;51.638;7.528;2024-03-06T10:59:19;101721.72;;;12.20;100.00
55010;BME280;40903;51.638;7.528;2024-03-06T11:01:46;101718.47;;;12.08;100.00
55010;BME280;40903;51.638;7.528;2024-03-06T11:04:13;101727.22;;;11.95;100.00
55010;BME280;40903;51.638;7.528;2024-03-06T11:06:40;101721.22;;;11.88;100.00
55010;BME280;40903;51.638;7.528;2024-03-06T11:09:05;101727.22;;;11.80;100.00
55010;BME280;40903;51.638;7.528;2024-03-06T11:11:53;101724.22;;;11.72;100.00
55010;BME280;40903;51.638;7.528;2024-03-06T11:14:23;101729.13;;;11.60;100.00
55010;BME280;40903;51.638;7.528;2024-03-06T11:17:01;101729.69;;;11.57;100.00
55010;BME280;40903;51.638;7.528;2024-03-06T11:19:31;101731.84;;;11.55;100.00
55010;BME280;40903;51.638;7.528;2024-03-06T11:21:57;101731.34;;;11.68;100.00
55010;BME280;40903;51.638;7.528;2024-03-06T11:24:32;101728.03;;;11.75;100.00
55010;BME280;40903;51.638;7.528;2024-03-06T11:27:02;101729.69;;;11.86;100.00
55010;BME280;40903;51.638;7.528;2024-03-06T11:29:29;101735.16;;;12.01;100.00
55010;BME280;40903;51.638;7.528;2024-03-06T11:32:06;101729.91;;;12.25;100.00
55010;BME280;40903;51.638;7.528;2024-03-06T11:34:36;101728.47;;;12.47;100.00
55010;BME280;40903;51.638;7.528;2024-03-06T11:37:07;101735.03;;;12.56;100.00
55010;BME280;40903;51.638;7.528;2024-03-06T11:39:35;101733.34;;;12.70;100.00
55010;BME280;40903;51.638;7.528;2024-03-06T11:42:02;101734.91;;;12.86;100.00
55010;BME280;40903;51.638;7.528;2024-03-06T11:44:27;101735.47;;;12.93;100.00
55010;BME280;40903;51.638;7.528;2024-03-06T11:46:58;101736.25;;;12.99;100.00
55010;BME280;40903;51.638;7.528;2024-03-06T11:49:25;101734.13;;;12.81;100.00
55010;BME280;40903;51.638;7.528;2024-03-06T11:51:52;101739.88;;;12.79;100.00
55010;BME280;40903;51.638;7.528;2024-03-06T11:54:19;101731.94;;;12.78;100.00
55010;BME280;40903;51.638;7.528;2024-03-06T11:56:49;101742.91;;;12.73;100.00
55010;BME280;40903;51.638;7.528;2024-03-06T11:59:39;101738.81;;;12.65;100.00
55010;BME280;40903;51.638;7.528;2024-03-06T12:02:05;101738.91;;;12.45;100.00
55010;BME280;40903;51.638;7.528;2024-03-06T12:04:32;101740.53;;;12.36;100.00
55010;BME280;40903;51.638;7.528;2024-03-06T12:07:03;101742.19;;;12.32;100.00
55010;BME280;40903;51.638;7.528;2024-03-06T12:09:37;101740.56;;;12.31;100.00
55010;BME280;40903;51.638;7.528;2024-03-06T12:12:02;101747.13;;;12.30;100.00
55010;BME280;40903;51.638;7.528;2024-03-06T12:14:29;101746.00;;;12.36;100.00
55010;BME280;40903;51.638;7.528;2024-03-06T12:17:01;101743.28;;;12.41;100.00
55010;BME280;40903;51.638;7.528;2024-03-06T12:19:34;101745.47;;;12.34;100.00
55010;BME280;40903;51.638;7.528;2024-03-06T12:22:03;101749.84;;;12.45;100.00
55010;BME280;40903;51.638;7.528;2024-03-06T12:24:30;101745.69;;;12.63;100.00
55010;BME280;40903;51.638;7.528;2024-03-06T12:27:07;101745.31;;;12.84;100.00
55010;BME280;40903;51.638;7.528;2024-03-06T12:29:35;101735.19;;;12.95;100.00
55010;BME280;40903;51.638;7.528;2024-03-06T12:32:02;101741.75;;;12.94;100.00
55010;BME280;40903;51.638;7.528;2024-03-06T12:34:28;101746.41;;;12.83;100.00
55010;BME280;40903;51.638;7.528;2024-03-06T12:36:55;101761.22;;;12.77;97.44
55010;BME280;40903;51.638;7.528;2024-03-06T12:39:23;101759.84;;;12.75;99.97
55010;BME280;40903;51.638;7.528;2024-03-06T12:41:51;101755.22;;;12.75;99.65
55010;BME280;40903;51.638;7.528;2024-03-06T12:44:16;101752.50;;;12.70;100.00
55010;BME280;40903;51.638;7.528;2024-03-06T12:46:42;101754.69;;;12.73;100.00